Time;durP1;ratioP1;P1;durP2;ratioP2;P2;SDS_P1;SDS_P2;PMS_P1;PMS_P2;Temp;Humidity;BMP_temperature;BMP_pressure;BME280_temperature;BME280_humidity;BME280_pressure;Samples;Min_cycle;Max_cycle;Signal;HPM_P1;HPM_P2
2021/07/14 00:00:46;;;;;;;13.45;7.82;;;;;;;23.99;60.31;99867.22;5091438;28;20165;-73
2021/07/14 00:03:12;;;;;;;12.57;7.68;;;;;;;23.79;61.07;99867.91;5092850;28;20063;-74
2021/07/14 00:05:38;;;;;;;16.05;7.57;;;;;;;24.27;61.35;99876.63;5092677;28;20040;-75
2021/07/14 00:08:06;;;;;;;13.70;7.60;;;;;;;24.65;60.16;99876.28;5092303;28;20572;-74
2021/07/14 00:10:32;;;;;;;12.10;7.38;;;;;;;24.94;58.49;99890.81;5074537;28;20175;-75
2021/07/14 00:13:08;;;;;;;11.38;7.20;;;;;;;25.13;59.54;99886.66;5091581;28;20055;-73
2021/07/14 00:23:34;;;;;;;19.33;8.20;;;;;;;24.01;62.38;99875.97;5091624;28;20082;-72
2021/07/14 00:25:59;;;;;;;17.98;7.88;;;;;;;23.66;64.37;99892.84;5073827;28;20040;-73
2021/07/14 00:28:25;;;;;;;19.67;7.22;;;;;;;23.30;65.28;99880.44;5092193;28;20052;-73
2021/07/14 00:30:54;;;;;;;14.48;8.13;;;;;;;23.14;65.91;99878.06;5092057;28;20523;-74
2021/07/14 00:33:21;;;;;;;14.23;8.25;;;;;;;23.01;65.48;99873.69;5091406;28;20048;-72
2021/07/14 00:35:46;;;;;;;15.68;8.10;;;;;;;23.00;66.02;99880.00;5091916;28;20393;-74
2021/07/14 00:38:12;;;;;;;14.00;7.70;;;;;;;22.94;65.99;99893.78;5090703;28;20040;-72
2021/07/14 00:40:38;;;;;;;16.02;8.38;;;;;;;22.80;66.97;99892.13;5073120;28;20120;-71
2021/07/14 00:43:05;;;;;;;17.52;8.57;;;;;;;22.70;67.25;99893.72;5073416;28;20047;-72
2021/07/14 00:45:31;;;;;;;18.50;8.43;;;;;;;22.57;67.26;99879.56;5090729;28;20468;-72
2021/07/14 00:47:58;;;;;;;15.50;8.52;;;;;;;23.36;65.15;99889.81;5072174;28;20067;-71
2021/07/14 00:50:25;;;;;;;17.33;8.25;;;;;;;23.37;64.49;99871.00;5073838;28;20074;-73
2021/07/14 00:52:51;;;;;;;22.75;8.55;;;;;;;23.37;64.56;99888.84;5073220;28;20044;-73
2021/07/14 00:55:16;;;;;;;20.23;8.13;;;;;;;23.00;65.77;99880.84;5073014;28;20040;-74
2021/07/14 00:57:42;;;;;;;20.73;9.38;;;;;;;22.95;65.94;99888.34;5073083;28;20516;-73
2021/07/14 01:00:11;;;;;;;17.60;9.05;;;;;;;22.68;67.24;99882.31;5056667;28;20047;-74
2021/07/14 01:02:37;;;;;;;19.20;9.43;;;;;;;22.54;67.86;99885.97;5056477;28;20047;-74
2021/07/14 01:05:03;;;;;;;19.88;8.77;;;;;;;22.56;69.69;99893.88;5091052;28;20071;-72
2021/07/14 01:07:38;;;;;;;15.73;7.93;;;;;;;23.29;66.71;99881.41;5090859;28;20523;-74
2021/07/14 01:10:30;;;;;;;13.43;7.80;;;;;;;23.98;63.69;99894.91;5092328;28;20036;-73
2021/07/14 01:13:34;;;;;;;11.70;7.63;;;;;;;24.17;62.36;99897.00;5064666;28;20116;-73
2021/07/14 01:16:03;;;;;;;15.45;8.10;;;;;;;24.40;62.82;99888.91;5091706;28;20040;-73
2021/07/14 01:18:37;;;;;;;15.00;7.28;;;;;;;24.46;61.77;99876.03;5072647;28;20040;-74
2021/07/14 01:21:09;;;;;;;16.70;8.02;;;;;;;23.97;62.53;99891.38;5073317;28;20036;-74
2021/07/14 01:23:41;;;;;;;14.57;8.45;;;;;;;23.76;64.11;99891.19;5073297;28;20409;-74
2021/07/14 01:26:11;;;;;;;18.95;7.80;;;;;;;23.92;64.31;99892.72;5092301;28;20393;-74
2021/07/14 01:28:38;;;;;;;14.80;7.57;;;;;;;24.21;62.81;99875.25;5091674;28;20048;-75
2021/07/14 01:31:04;;;;;;;17.60;7.80;;;;;;;24.48;62.24;99887.44;5073994;28;20048;-72
2021/07/14 01:33:35;;;;;;;15.65;7.65;;;;;;;24.20;62.94;99892.28;5091616;28;20051;-74
2021/07/14 01:36:09;;;;;;;16.48;8.35;;;;;;;23.86;63.44;99870.00;5074257;28;20048;-74
2021/07/14 01:38:36;;;;;;;12.27;8.13;;;;;;;23.88;63.35;99893.91;5055592;28;20489;-75
2021/07/14 01:41:03;;;;;;;21.70;8.00;;;;;;;23.65;65.23;99891.16;5091052;28;20047;-74
2021/07/14 01:43:33;;;;;;;11.88;8.10;;;;;;;23.40;65.74;99883.25;5055469;28;20044;-75
2021/07/14 01:46:00;;;;;;;17.73;8.55;;;;;;;23.14;66.37;99883.38;5055592;28;20040;-74
2021/07/14 01:48:28;;;;;;;12.90;8.63;;;;;;;22.89;66.89;99888.78;5072235;28;20048;-74
2021/07/14 01:50:54;;;;;;;15.75;8.20;;;;;;;23.08;67.00;99880.31;5090492;28;20042;-75
2021/07/14 01:53:20;;;;;;;14.43;8.45;;;;;;;23.62;65.36;99891.38;5055113;28;20071;-74
2021/07/14 01:55:48;;;;;;;16.92;8.20;;;;;;;24.06;63.19;99889.81;5072392;28;20096;-74
2021/07/14 01:58:16;;;;;;;18.17;8.57;;;;;;;24.12;61.88;99897.38;5072642;28;20071;-75
2021/07/14 02:00:42;;;;;;;14.02;9.18;;;;;;;24.32;59.95;99895.84;5090347;28;20040;-75
2021/07/14 02:05:52;;;;;;;21.55;9.95;;;;;;;24.19;60.28;99890.56;5090370;28;20036;-73
2021/07/14 02:08:18;;;;;;;16.33;9.10;;;;;;;24.60;58.94;99889.19;5072262;28;20048;-74
2021/07/14 02:10:44;;;;;;;15.70;8.50;;;;;;;24.36;62.33;99875.91;5090442;28;20036;-73
2021/07/14 02:13:11;;;;;;;18.25;8.20;;;;;;;24.31;62.18;99886.97;5071591;28;20046;-75
2021/07/14 02:15:38;;;;;;;18.63;9.80;;;;;;;24.53;59.46;99882.63;5071955;28;20044;-75
2021/07/14 02:18:09;;;;;;;15.05;9.50;;;;;;;24.89;57.71;99879.66;5071576;28;20066;-76
2021/07/14 02:20:35;;;;;;;25.58;9.38;;;;;;;25.12;57.28;99895.69;5038990;28;20040;-74
2021/07/14 02:23:04;;;;;;;22.58;9.73;;;;;;;24.54;60.03;99878.97;5072204;28;20052;-74
2021/07/14 02:25:30;;;;;;;18.73;9.20;;;;;;;24.13;62.80;99883.03;5072131;28;20079;-73
2021/07/14 02:27:56;;;;;;;12.32;8.43;;;;;;;24.29;63.35;99882.72;5090794;28;20068;-74
2021/07/14 02:30:22;;;;;;;17.45;9.50;;;;;;;25.28;59.33;99888.97;5089961;28;20040;-73
2021/07/14 02:32:52;;;;;;;17.27;8.35;;;;;;;25.88;57.80;99890.16;5071393;28;20064;-73
2021/07/14 02:35:18;;;;;;;14.75;8.73;;;;;;;26.07;56.12;99888.63;5090002;28;20043;-75
2021/07/14 02:38:02;;;;;;;19.60;9.38;;;;;;;26.44;53.71;99897.03;5055054;28;20036;-73
2021/07/14 02:40:41;;;;;;;12.80;8.70;;;;;;;26.62;54.07;99881.13;5071343;28;20101;-73
2021/07/14 02:43:07;;;;;;;17.45;8.60;;;;;;;27.00;53.35;99899.25;5071598;28;20048;-73
2021/07/14 02:45:36;;;;;;;12.98;8.20;;;;;;;27.48;51.42;99885.84;5072252;28;20134;-74
2021/07/14 02:48:02;;;;;;;13.00;8.40;;;;;;;27.86;49.85;99887.72;5090339;28;20047;-73
2021/07/14 02:50:31;;;;;;;21.10;8.88;;;;;;;28.18;48.95;99898.97;5054024;28;20043;-73
2021/07/14 02:53:01;;;;;;;13.65;8.10;;;;;;;28.22;48.67;99882.53;5071417;28;20036;-73
2021/07/14 02:55:30;;;;;;;16.27;8.35;;;;;;;28.58;48.27;99902.44;5071863;28;20046;-73
2021/07/14 02:57:58;;;;;;;9.15;7.53;;;;;;;29.01;46.99;99899.16;5074810;28;20052;-73
2021/07/14 03:00:25;;;;;;;20.17;8.00;;;;;;;29.33;45.98;99898.63;5075021;28;20032;-74
2021/07/14 03:02:51;;;;;;;17.65;8.27;;;;;;;29.56;45.30;99901.75;5093626;28;20043;-71
2021/07/14 03:05:17;;;;;;;20.92;7.93;;;;;;;29.51;45.25;99894.13;5057629;28;20068;-71
2021/07/14 03:07:45;;;;;;;19.10;8.25;;;;;;;29.31;45.30;99877.22;5092593;28;20450;-74
2021/07/14 03:10:12;;;;;;;15.30;8.32;;;;;;;29.60;45.01;99900.44;5093069;28;20512;-73
2021/07/14 03:12:38;;;;;;;16.23;8.00;;;;;;;30.07;44.56;99897.47;5074069;28;20549;-73
2021/07/14 03:15:08;;;;;;;14.02;7.68;;;;;;;30.41;43.74;99903.75;5042247;28;20177;-73
2021/07/14 03:17:34;;;;;;;20.20;7.75;;;;;;;30.75;43.34;99895.72;5058411;28;20040;-71
2021/07/14 03:20:03;;;;;;;21.80;8.70;;;;;;;30.99;43.25;99900.34;5074438;28;20063;-73
2021/07/14 03:22:29;;;;;;;20.52;8.02;;;;;;;31.21;42.92;99897.09;5092470;28;20067;-71
2021/07/14 03:24:56;;;;;;;18.67;8.77;;;;;;;31.47;42.30;99888.84;5058298;28;20039;-71
2021/07/14 03:27:22;;;;;;;25.45;9.20;;;;;;;31.72;41.04;99892.44;5093087;28;20555;-74
2021/07/14 03:29:50;;;;;;;27.77;7.93;;;;;;;31.60;41.47;99891.91;5092430;28;20040;-73
2021/07/14 03:32:17;;;;;;;29.95;8.82;;;;;;;31.88;40.71;99900.53;5073144;28;20064;-72
2021/07/14 03:34:43;;;;;;;29.52;8.02;;;;;;;31.99;40.41;99902.09;5056548;28;20044;-73
2021/07/14 03:37:09;;;;;;;25.42;8.20;;;;;;;32.25;40.14;99907.31;5057188;28;20048;-71
2021/07/14 03:39:40;;;;;;;23.83;8.73;;;;;;;32.09;39.55;99893.78;5074322;28;20163;-73
2021/07/14 03:42:09;;;;;;;20.98;8.95;;;;;;;32.38;39.08;99895.94;5093234;28;20097;-73
2021/07/14 03:44:35;;;;;;;26.73;8.05;;;;;;;32.65;38.32;99897.38;5074238;28;20044;-73
2021/07/14 03:47:02;;;;;;;23.80;8.38;;;;;;;32.76;37.79;99883.47;5058070;28;20090;-73
2021/07/14 03:49:28;;;;;;;28.63;8.30;;;;;;;32.96;37.68;99886.63;5058088;28;20036;-73
2021/07/14 03:51:56;;;;;;;33.25;8.40;;;;;;;32.99;37.89;99891.69;5074607;28;20558;-75
2021/07/14 03:54:22;;;;;;;32.28;8.57;;;;;;;33.05;37.85;99882.84;5073833;28;20074;-75
2021/07/14 03:56:48;;;;;;;44.50;9.77;;;;;;;33.35;37.13;99881.16;5091474;28;20047;-72
2021/07/14 03:59:13;;;;;;;55.28;10.02;;;;;;;33.78;36.64;99894.03;5074519;28;20044;-73
2021/07/14 04:01:40;;;;;;;98.53;12.10;;;;;;;34.04;35.82;99885.53;5092604;28;20176;-73
2021/07/14 04:04:06;;;;;;;59.28;10.27;;;;;;;34.47;35.24;99895.81;5093008;28;20063;-74
2021/07/14 04:06:34;;;;;;;41.65;9.35;;;;;;;34.57;35.15;99896.38;5073194;28;20134;-73
2021/07/14 04:09:19;;;;;;;35.55;7.90;;;;;;;34.59;35.09;99899.75;5058106;28;20043;-73
2021/07/14 04:11:47;;;;;;;26.30;8.13;;;;;;;34.73;34.66;99898.88;5073293;28;20144;-74
2021/07/14 04:14:13;;;;;;;18.63;7.97;;;;;;;34.74;34.46;99892.41;5073310;28;20047;-72
2021/07/14 04:16:39;;;;;;;21.77;7.93;;;;;;;35.22;33.82;99885.50;5090742;28;20035;-72
2021/07/14 04:19:05;;;;;;;21.45;8.15;;;;;;;35.58;33.05;99896.38;5090373;28;20085;-76
2021/07/14 04:21:30;;;;;;;19.58;8.18;;;;;;;35.63;33.29;99882.19;5073813;28;20044;-74
2021/07/14 04:23:56;;;;;;;16.20;7.72;;;;;;;35.87;33.86;99894.59;5056590;28;20044;-72
2021/07/14 04:26:23;;;;;;;14.40;7.95;;;;;;;36.23;33.14;99884.38;5090671;28;20040;-74
2021/07/14 04:28:48;;;;;;;12.82;7.10;;;;;;;35.87;32.71;99879.09;5091201;28;20068;-74
2021/07/14 04:31:15;;;;;;;13.95;7.05;;;;;;;36.09;32.23;99879.88;5089710;28;20079;-75
2021/07/14 04:33:44;;;;;;;13.85;7.03;;;;;;;36.61;31.51;99886.75;5055288;28;20072;-73
2021/07/14 04:36:10;;;;;;;20.95;7.72;;;;;;;36.47;31.99;99876.81;5072812;28;20047;-72
2021/07/14 04:38:36;;;;;;;15.43;7.10;;;;;;;36.36;32.38;99886.38;5088740;28;20098;-74
2021/07/14 04:41:05;;;;;;;16.00;7.50;;;;;;;36.49;32.11;99883.75;5091306;28;20926;-74
2021/07/14 04:43:31;;;;;;;13.45;7.57;;;;;;;36.68;32.25;99882.16;5072929;28;20131;-74
2021/07/14 04:46:03;;;;;;;17.38;7.53;;;;;;;36.23;32.51;99883.53;5056127;28;20127;-74
2021/07/14 04:48:28;;;;;;;16.20;7.97;;;;;;;36.39;32.49;99890.56;5088950;28;20078;-76
2021/07/14 04:50:54;;;;;;;13.40;7.50;;;;;;;36.82;31.70;99889.38;5072457;28;20044;-74
2021/07/14 04:53:20;;;;;;;17.13;7.82;;;;;;;37.27;31.05;99895.25;5071007;28;20135;-74
2021/07/14 04:55:46;;;;;;;19.27;7.85;;;;;;;37.52;29.95;99890.88;5071692;28;20110;-75
2021/07/14 04:58:12;;;;;;;21.75;8.48;;;;;;;37.25;30.35;99886.44;5071490;28;20377;-75
2021/07/14 05:00:37;;;;;;;17.15;7.80;;;;;;;37.18;30.90;99885.53;5088548;28;20524;-74
2021/07/14 05:03:03;;;;;;;22.15;8.68;;;;;;;37.15;31.03;99881.31;5071896;28;20380;-74
2021/07/14 05:05:29;;;;;;;21.45;8.80;;;;;;;37.17;30.91;99881.97;5090192;28;20039;-75
2021/07/14 05:07:55;;;;;;;21.85;8.52;;;;;;;37.52;30.34;99887.31;5089537;28;20038;-75
2021/07/14 05:10:28;;;;;;;19.67;8.35;;;;;;;37.53;30.18;99892.56;5090177;28;20059;-74
2021/07/14 05:12:56;;;;;;;20.00;8.13;;;;;;;37.92;29.75;99887.38;5089570;28;20519;-75
2021/07/14 05:15:22;;;;;;;23.98;8.73;;;;;;;37.81;30.23;99900.59;5089255;28;20051;-75
2021/07/14 05:17:47;;;;;;;22.35;8.07;;;;;;;38.53;29.04;99887.91;5071479;28;20047;-74
2021/07/14 05:20:13;;;;;;;24.25;8.48;;;;;;;39.36;27.93;99888.88;5070311;28;20054;-74
2021/07/14 05:22:39;;;;;;;24.52;7.80;;;;;;;39.62;26.54;99862.41;5088146;28;20050;-72
2021/07/14 05:25:07;;;;;;;17.42;7.85;;;;;;;39.51;27.42;99885.88;5071139;28;20404;-73
2021/07/14 05:27:33;;;;;;;14.25;7.53;;;;;;;38.96;28.07;99896.44;5089110;28;20071;-71
2021/07/14 05:30:00;;;;;;;14.52;8.60;;;;;;;38.59;28.24;99889.78;5088740;28;20058;-73
2021/07/14 05:32:26;;;;;;;15.50;8.48;;;;;;;38.70;28.14;99891.09;5088322;28;20121;-75
2021/07/14 05:34:51;;;;;;;19.73;7.95;;;;;;;39.15;27.79;99897.41;5089054;28;20055;-73
2021/07/14 05:37:17;;;;;;;22.73;7.65;;;;;;;38.64;28.40;99891.91;5070371;28;20091;-75
2021/07/14 05:39:43;;;;;;;17.13;7.88;;;;;;;38.07;29.50;99882.53;5089451;28;20496;-76
2021/07/14 05:42:08;;;;;;;27.30;7.85;;;;;;;39.00;28.01;99896.84;5071292;28;20044;-74
2021/07/14 05:44:34;;;;;;;18.58;8.15;;;;;;;39.65;26.08;99892.09;5069888;28;20036;-73
2021/07/14 05:47:00;;;;;;;18.27;8.15;;;;;;;39.58;26.76;99894.03;5087410;28;20089;-75
2021/07/14 05:49:26;;;;;;;24.45;8.40;;;;;;;39.08;27.96;99896.63;5052898;28;20051;-75
2021/07/14 05:51:51;;;;;;;16.38;8.23;;;;;;;38.66;27.87;99890.69;5089234;28;20518;-75
2021/07/14 05:54:17;;;;;;;24.10;7.93;;;;;;;38.93;28.01;99893.28;5087720;28;20039;-74
2021/07/14 05:56:43;;;;;;;17.90;7.40;;;;;;;39.09;28.14;99876.41;5053056;28;20043;-75
2021/07/14 05:59:09;;;;;;;17.23;7.90;;;;;;;39.24;27.84;99890.63;5069729;28;20480;-73
2021/07/14 06:01:37;;;;;;;18.50;8.70;;;;;;;38.90;27.88;99880.06;5088523;28;20069;-75
2021/07/14 06:04:03;;;;;;;23.13;8.10;;;;;;;39.00;27.96;99877.69;5088121;28;20060;-76
2021/07/14 06:06:29;;;;;;;18.25;8.10;;;;;;;39.11;27.82;99885.22;5071238;28;20543;-75
2021/07/14 06:08:54;;;;;;;18.27;7.88;;;;;;;38.64;28.84;99890.03;5088632;28;20128;-76
2021/07/14 06:11:20;;;;;;;25.55;8.00;;;;;;;38.54;29.00;99880.56;5088773;28;20040;-74
2021/07/14 06:13:46;;;;;;;28.00;8.48;;;;;;;38.57;28.65;99883.69;5089106;28;20048;-72
2021/07/14 06:16:12;;;;;;;25.75;7.80;;;;;;;38.32;28.95;99882.72;5089088;28;20122;-76
2021/07/14 06:18:38;;;;;;;20.88;7.72;;;;;;;38.42;28.64;99872.19;5089810;28;20046;-77
2021/07/14 06:21:05;;;;;;;16.65;7.40;;;;;;;38.70;28.17;99875.50;5089574;28;20040;-74
2021/07/14 06:23:32;;;;;;;18.00;8.40;;;;;;;38.44;28.33;99876.38;5072046;28;20121;-75
2021/07/14 06:25:58;;;;;;;17.23;7.95;;;;;;;38.73;27.77;99880.56;5088814;28;20384;-75
2021/07/14 06:28:24;;;;;;;13.65;7.45;;;;;;;39.00;27.34;99872.22;5074916;28;20035;-72
2021/07/14 06:30:50;;;;;;;18.27;7.55;;;;;;;39.28;26.73;99858.19;5110360;28;20056;-72
2021/07/14 06:33:15;;;;;;;15.43;6.97;;;;;;;39.32;26.85;99853.94;5112850;28;20071;-72
2021/07/14 06:35:41;;;;;;;15.80;6.80;;;;;;;39.34;27.07;99871.81;5111956;28;20040;-72
2021/07/14 06:38:08;;;;;;;18.20;7.18;;;;;;;40.20;25.51;99867.59;5095648;28;20055;-74
2021/07/14 06:40:37;;;;;;;13.93;7.10;;;;;;;41.52;23.71;99852.22;5076264;28;20071;-74
2021/07/14 06:43:06;;;;;;;16.13;6.90;;;;;;;42.47;22.51;99863.94;5113335;28;20050;-74
2021/07/14 06:45:32;;;;;;;15.35;7.25;;;;;;;42.65;22.00;99870.34;5046759;28;20046;-74
2021/07/14 06:47:58;;;;;;;12.23;6.63;;;;;;;42.43;22.07;99862.72;5112511;28;20126;-75
2021/07/14 06:50:24;;;;;;;11.50;6.40;;;;;;;42.72;21.87;99863.63;5112844;28;20078;-77
2021/07/14 06:52:50;;;;;;;17.55;6.40;;;;;;;43.19;20.97;99873.66;5112353;28;20039;-75
2021/07/14 06:55:15;;;;;;;18.23;5.80;;;;;;;42.76;21.27;99861.22;5093770;28;20072;-75
2021/07/14 06:57:44;;;;;;;17.35;6.60;;;;;;;43.31;20.27;99863.44;5093694;28;20074;-74
2021/07/14 07:00:12;;;;;;;12.57;6.72;;;;;;;43.36;20.45;99866.28;5112227;28;20126;-75
2021/07/14 07:02:38;;;;;;;16.77;7.03;;;;;;;41.55;22.48;99863.56;5112182;28;20096;-72
2021/07/14 07:05:05;;;;;;;12.38;6.68;;;;;;;42.13;21.95;99862.00;5077611;28;20496;-76
2021/07/14 07:07:31;;;;;;;9.27;6.20;;;;;;;42.55;21.57;99870.97;5089017;28;20068;-74
2021/07/14 07:09:56;;;;;;;16.75;6.10;;;;;;;42.02;22.47;99871.91;5096146;28;20070;-71
2021/07/14 07:12:22;;;;;;;15.38;6.45;;;;;;;41.69;22.93;99850.50;5089644;28;20557;-76
2021/07/14 07:14:48;;;;;;;16.08;5.97;;;;;;;41.94;22.62;99855.78;5094625;28;20048;-77
2021/07/14 07:17:14;;;;;;;13.00;6.45;;;;;;;42.66;21.81;99861.00;5094105;28;20040;-75
2021/07/14 07:19:45;;;;;;;17.98;6.13;;;;;;;43.37;20.85;99863.28;5094268;28;20035;-78
2021/07/14 07:22:10;;;;;;;17.20;6.90;;;;;;;41.94;22.63;99847.53;5105219;28;20040;-74
2021/07/14 07:24:36;;;;;;;12.07;6.50;;;;;;;41.18;22.85;99856.53;5112011;28;20129;-75
2021/07/14 07:27:04;;;;;;;12.20;6.05;;;;;;;41.19;22.51;99853.53;5113607;28;20043;-78
2021/07/14 07:29:30;;;;;;;13.60;6.35;;;;;;;40.81;22.44;99850.28;5094107;28;20040;-78
2021/07/14 07:31:56;;;;;;;13.00;5.55;;;;;;;41.75;20.86;99855.06;5112344;28;20060;-77
2021/07/14 07:34:22;;;;;;;10.05;5.68;;;;;;;40.89;21.41;99853.56;5112373;28;20052;-75
2021/07/14 07:36:48;;;;;;;14.98;6.00;;;;;;;40.47;22.17;99844.34;5112364;28;20047;-75
2021/07/14 07:39:14;;;;;;;17.77;5.82;;;;;;;41.74;20.96;99855.28;5094335;28;20039;-76
2021/07/14 07:41:41;;;;;;;13.60;5.57;;;;;;;43.15;19.82;99855.97;5092224;28;20471;-74
2021/07/14 07:44:10;;;;;;;11.10;5.15;;;;;;;42.70;19.34;99851.19;5110829;28;20485;-72
2021/07/14 07:46:36;;;;;;;10.15;5.30;;;;;;;43.21;18.60;99857.72;5110708;28;20133;-76
2021/07/14 07:49:04;;;;;;;7.82;5.28;;;;;;;41.43;21.33;99840.75;5092088;28;20389;-69
2021/07/14 07:51:29;;;;;;;12.38;5.85;;;;;;;40.74;22.27;99841.25;5094312;28;20049;-75
2021/07/14 07:53:56;;;;;;;10.88;5.75;;;;;;;40.19;22.72;99849.50;5093121;28;20035;-70
2021/07/14 07:56:22;;;;;;;7.55;5.78;;;;;;;40.26;22.60;99829.16;5090563;28;20050;-76
2021/07/14 07:58:48;;;;;;;10.90;5.95;;;;;;;40.44;22.70;99844.78;5093203;28;20522;-77
2021/07/14 08:01:14;;;;;;;8.10;5.75;;;;;;;40.92;22.05;99827.56;5089912;28;20067;-72
2021/07/14 08:03:40;;;;;;;16.23;6.47;;;;;;;40.57;22.25;99828.19;5108476;28;20062;-77
2021/07/14 08:06:06;;;;;;;9.48;6.07;;;;;;;40.45;23.07;99831.91;5091304;28;20084;-73
2021/07/14 08:08:32;;;;;;;13.25;6.03;;;;;;;40.36;22.52;99831.41;5090746;28;20035;-71
2021/07/14 08:10:58;;;;;;;14.63;6.25;;;;;;;40.20;22.30;99819.09;5092241;28;20613;-74
2021/07/14 08:13:24;;;;;;;8.88;5.93;;;;;;;39.53;23.63;99833.63;5109854;28;20058;-64
2021/07/14 08:15:50;;;;;;;10.40;6.25;;;;;;;39.43;23.12;99827.78;5076970;28;20046;-63
2021/07/14 08:18:16;;;;;;;14.52;6.30;;;;;;;40.79;22.31;99822.22;5076695;28;20411;-68
2021/07/14 08:20:43;;;;;;;11.57;5.38;;;;;;;41.00;21.79;99807.19;5095038;28;20040;-67
2021/07/14 08:23:10;;;;;;;12.82;5.63;;;;;;;40.38;22.58;99814.72;5077067;28;20093;-66
2021/07/14 08:25:36;;;;;;;16.92;6.05;;;;;;;40.57;22.79;99814.47;5060415;28;20040;-67
2021/07/14 08:28:02;;;;;;;15.07;6.43;;;;;;;39.06;23.30;99811.16;5044175;28;20043;-72
2021/07/14 08:30:39;;;;;;;12.30;6.10;;;;;;;39.82;22.58;99804.69;5096346;28;20118;-69
2021/07/14 08:33:05;;;;;;;14.05;5.55;;;;;;;41.20;21.51;99805.84;5060307;28;20055;-71
2021/07/14 08:35:31;;;;;;;14.10;5.68;;;;;;;39.86;23.13;99817.72;5090305;28;20500;-67
2021/07/14 08:37:57;;;;;;;8.35;5.97;;;;;;;39.06;23.27;99802.97;5094039;28;20366;-69
2021/07/14 08:40:22;;;;;;;18.27;5.35;;;;;;;39.07;23.13;99802.72;5097016;28;20078;-71
2021/07/14 08:42:49;;;;;;;18.10;6.03;;;;;;;38.38;24.27;99803.44;5109364;28;20474;-68
2021/07/14 08:45:18;;;;;;;12.77;5.55;;;;;;;37.59;24.77;99792.59;5091533;28;20425;-71
2021/07/14 08:47:44;;;;;;;12.48;4.93;;;;;;;37.49;23.68;99809.41;5073773;28;20074;-69
2021/07/14 08:50:27;;;;;;;9.75;5.30;;;;;;;37.44;24.49;99801.00;5092772;28;20069;-67
2021/07/14 08:52:53;;;;;;;12.63;5.57;;;;;;;37.85;23.21;99797.22;5077867;28;20031;-68
2021/07/14 08:55:27;;;;;;;6.82;5.13;;;;;;;39.19;20.96;99800.13;5073792;28;20515;-66
2021/07/14 08:57:55;;;;;;;8.95;5.03;;;;;;;39.18;22.38;99790.25;5078438;28;20038;-67
2021/07/14 09:00:26;;;;;;;8.82;5.43;;;;;;;39.63;21.80;99784.66;5091381;28;20122;-68
2021/07/14 09:02:56;;;;;;;16.52;6.15;;;;;;;40.08;21.29;99792.66;5059607;28;20059;-67
2021/07/14 09:05:21;;;;;;;9.10;5.95;;;;;;;40.70;18.26;99785.19;5073656;28;20043;-67
2021/07/14 09:07:47;;;;;;;8.30;5.13;;;;;;;40.55;20.73;99800.13;5091619;28;20100;-68
2021/07/14 09:10:14;;;;;;;8.85;5.68;;;;;;;39.66;20.98;99793.25;5035138;28;20446;-66
2021/07/14 09:12:45;;;;;;;10.45;5.60;;;;;;;37.09;24.48;99791.28;5070248;28;20079;-69
2021/07/14 09:15:17;;;;;;;9.30;5.78;;;;;;;36.17;25.42;99789.81;5076916;28;20048;-67
2021/07/14 09:17:44;;;;;;;17.30;5.72;;;;;;;36.86;24.69;99770.66;5108142;28;20514;-66
2021/07/14 09:20:13;;;;;;;11.90;5.80;;;;;;;37.03;24.34;99786.63;5079125;28;20062;-66
2021/07/14 09:22:39;;;;;;;10.55;5.97;;;;;;;37.00;23.69;99762.50;5088721;28;20104;-68
2021/07/14 09:25:17;;;;;;;10.10;5.10;;;;;;;36.74;24.73;99772.28;5036073;28;20101;-67
2021/07/14 09:27:58;;;;;;;11.07;5.22;;;;;;;36.42;24.64;99770.31;5073433;28;20048;-66
2021/07/14 09:30:26;;;;;;;11.75;5.63;;;;;;;35.81;25.25;99759.25;5052294;28;20185;-70
2021/07/14 09:32:53;;;;;;;18.15;5.82;;;;;;;35.18;26.52;99774.56;5087069;28;20060;-71
2021/07/14 09:35:29;;;;;;;12.30;5.45;;;;;;;34.66;27.55;99762.06;5069019;28;20415;-72
2021/07/14 09:37:57;;;;;;;11.18;5.95;;;;;;;34.38;27.90;99757.38;5087220;28;20409;-71
2021/07/14 09:40:24;;;;;;;11.93;6.13;;;;;;;34.11;28.29;99764.28;5052855;28;20036;-71
2021/07/14 09:42:57;;;;;;;9.73;5.90;;;;;;;33.87;28.39;99748.28;5086047;28;20051;-71
2021/07/14 09:45:48;;;;;;;9.95;5.85;;;;;;;34.09;28.33;99769.06;5086374;28;20108;-73
2021/07/14 09:48:15;;;;;;;;;;;;;;;34.22;28.15;99768.41;5070023;28;20085;-75
2021/07/14 09:50:59;;;;;;;8.80;5.55;;;;;;;33.97;26.99;99753.44;5087357;28;19919;-76
2021/07/14 09:53:30;;;;;;;11.73;5.03;;;;;;;33.85;27.06;99760.34;5069925;28;20044;-75
2021/07/14 09:55:58;;;;;;;6.18;5.32;;;;;;;34.02;26.35;99764.56;5068398;28;20239;-76
2021/07/14 09:58:26;;;;;;;9.13;5.35;;;;;;;33.95;26.54;99758.19;5087110;28;20050;-79
2021/07/14 10:00:56;;;;;;;7.97;5.65;;;;;;;34.13;26.10;99765.97;5053530;28;20044;-80
2021/07/14 10:03:33;;;;;;;11.38;5.60;;;;;;;34.07;26.46;99759.41;5087968;28;20052;-65
2021/07/14 10:06:13;;;;;;;10.43;5.20;;;;;;;33.75;25.63;99756.00;5091411;28;20047;-74
2021/07/14 10:08:46;;;;;;;9.82;5.20;;;;;;;33.88;25.77;99749.97;5092432;28;20039;-80
2021/07/14 10:11:26;;;;;;;10.32;5.60;;;;;;;33.84;27.03;99731.53;5091053;28;20040;-70
2021/07/14 10:13:59;;;;;;;8.52;5.47;;;;;;;33.48;28.40;99726.78;5091138;28;20051;-75
2021/07/14 10:16:28;;;;;;;11.52;6.32;;;;;;;33.36;28.65;99730.94;5039513;28;20051;-67
2021/07/14 10:19:05;;;;;;;20.70;6.45;;;;;;;33.35;28.40;99740.97;5090640;28;20048;-66
2021/07/14 10:21:38;;;;;;;15.57;6.05;;;;;;;33.25;29.33;99742.22;5072896;28;20531;-67
2021/07/14 10:24:06;;;;;;;12.00;6.38;;;;;;;33.13;29.62;99737.22;5091913;28;20040;-67
2021/07/14 10:26:35;;;;;;;9.27;5.95;;;;;;;33.18;29.66;99721.25;5091730;28;20082;-68
2021/07/14 10:29:03;;;;;;;13.88;5.85;;;;;;;33.56;30.21;99734.00;5055518;28;20044;-67
2021/07/14 10:31:29;;;;;;;20.05;6.50;;;;;;;33.80;27.85;99731.88;5090054;28;20101;-68
2021/07/14 10:33:56;;;;;;;8.75;5.80;;;;;;;34.21;29.04;99728.72;5055217;28;20547;-69
2021/07/14 10:36:29;;;;;;;11.25;5.65;;;;;;;34.88;27.25;99723.03;5091654;28;20404;-69
2021/07/14 10:39:00;;;;;;;16.10;5.60;;;;;;;34.80;26.93;99719.56;5072843;28;20130;-67
2021/07/14 10:41:29;;;;;;;11.65;5.30;;;;;;;34.12;27.62;99716.25;5090719;28;20068;-68
2021/07/14 10:43:55;;;;;;;9.95;5.35;;;;;;;33.70;27.73;99709.59;5091817;28;20118;-67
2021/07/14 10:46:23;;;;;;;13.35;5.32;;;;;;;33.77;27.70;99718.69;5056754;28;20130;-68
2021/07/14 10:48:51;;;;;;;10.40;5.63;;;;;;;33.89;28.29;99707.38;5091308;28;20032;-67
2021/07/14 10:51:17;;;;;;;10.82;5.20;;;;;;;33.71;27.64;99711.28;5090713;28;20047;-66
2021/07/14 10:53:44;;;;;;;7.30;4.95;;;;;;;33.65;28.22;99711.19;5090179;28;20151;-68
2021/07/14 10:56:12;;;;;;;7.50;4.90;;;;;;;33.71;27.88;99699.59;5072757;28;20036;-68
2021/07/14 10:58:38;;;;;;;7.45;5.00;;;;;;;33.68;27.65;99681.81;5055428;28;20556;-66
2021/07/14 11:01:04;;;;;;;8.82;5.00;;;;;;;33.67;27.00;99701.00;5090143;28;20482;-68
2021/07/14 11:03:33;;;;;;;10.90;5.13;;;;;;;33.60;27.15;99694.63;5070646;28;20543;-68
2021/07/14 11:06:07;;;;;;;10.20;5.55;;;;;;;33.72;27.52;99682.28;5072941;28;20044;-68
2021/07/14 11:08:43;;;;;;;8.98;4.80;;;;;;;33.60;27.15;99681.91;5091082;28;20039;-67
2021/07/14 11:11:13;;;;;;;10.18;5.00;;;;;;;33.62;27.68;99673.56;5072988;28;20067;-69
2021/07/14 11:13:51;;;;;;;13.52;5.05;;;;;;;33.76;27.16;99657.28;5089828;28;20106;-67
2021/07/14 11:16:31;;;;;;;9.40;4.80;;;;;;;33.86;27.62;99648.03;5071787;28;20408;-67
2021/07/14 11:19:04;;;;;;;13.00;4.88;;;;;;;33.66;27.65;99664.88;5072789;28;20046;-69
2021/07/14 11:21:47;;;;;;;8.82;4.85;;;;;;;33.60;27.99;99653.94;5090425;28;20139;-68
2021/07/14 11:24:49;;;;;;;6.90;4.82;;;;;;;33.53;28.22;99672.81;5089956;28;20036;-68
2021/07/14 11:27:18;;;;;;;5.30;4.65;;;;;;;33.57;28.34;99666.00;5090162;28;20039;-68
2021/07/14 11:29:48;;;;;;;9.63;4.82;;;;;;;33.40;27.88;99653.63;5089894;28;20048;-68
2021/07/14 11:32:35;;;;;;;12.52;5.30;;;;;;;33.53;28.71;99669.28;5069495;28;20504;-69
2021/07/14 11:35:16;;;;;;;18.27;5.03;;;;;;;33.55;29.01;99643.66;5072007;28;20048;-69
2021/07/14 11:37:55;;;;;;;15.50;5.18;;;;;;;33.43;28.64;99631.53;5073227;28;20413;-67
2021/07/14 11:40:21;;;;;;;15.85;5.30;;;;;;;33.46;28.91;99653.75;5087482;28;20052;-69
2021/07/14 11:42:53;;;;;;;6.50;4.90;;;;;;;33.37;28.28;99648.56;5091619;28;20131;-68